Terminal Aerodrome Forecast
Issued by NWS

Home | Current Version | Previous Version | Text Only | Print | Product List | Glossary On
Versions: 1 2 3 4 5 6 7 8 9 10 11 12 13 14 15 16 17 18 19 20 21 22 23 24 25 26
000
FTUS45 KBYZ 051739
TAFLVM
TAF
KLVM 051739Z 0518/0618 VRB06KT P6SM VCTS SCT050CB BKN080
     FM060200 27015KT P6SM -SHRA BKN050 OVC080
     FM060900 33012KT P6SM BKN100=

USA.gov is the U.S. government's official web portal to all federal, state and local government web resources and services.